sensor_id;sensor_type;location;lat;lon;timestamp;pressure;altitude;pressure_sealevel;temperature;humidity
58955;BME280;45815;52.334;5.024;2022-12-08T00:00:43;101107.16;;;4.25;100.00
58955;BME280;45815;52.334;5.024;2022-12-08T00:03:08;101099.97;;;4.19;100.00
58955;BME280;45815;52.334;5.024;2022-12-08T00:05:34;101103.69;;;4.25;100.00
58955;BME280;45815;52.334;5.024;2022-12-08T00:08:18;101104.56;;;4.25;100.00
58955;BME280;45815;52.334;5.024;2022-12-08T00:11:01;101093.22;;;4.23;100.00
58955;BME280;45815;52.334;5.024;2022-12-08T00:13:27;101088.84;;;4.22;100.00
58955;BME280;45815;52.334;5.024;2022-12-08T00:15:52;101082.03;;;4.24;100.00
58955;BME280;45815;52.334;5.024;2022-12-08T00:18:23;101082.81;;;4.23;100.00
58955;BME280;45815;52.334;5.024;2022-12-08T00:20:54;101078.50;;;4.23;100.00
58955;BME280;45815;52.334;5.024;2022-12-08T00:23:20;101069.81;;;4.23;100.00
58955;BME280;45815;52.334;5.024;2022-12-08T00:25:45;101063.38;;;4.15;100.00
58955;BME280;45815;52.334;5.024;2022-12-08T00:28:10;101059.00;;;4.14;100.00
58955;BME280;45815;52.334;5.024;2022-12-08T00:30:39;101052.09;;;4.14;100.00
58955;BME280;45815;52.334;5.024;2022-12-08T00:33:04;101047.72;;;4.13;100.00
58955;BME280;45815;52.334;5.024;2022-12-08T00:35:29;101053.78;;;4.14;100.00
58955;BME280;45815;52.334;5.024;2022-12-08T00:37:55;101044.75;;;4.06;100.00
58955;BME280;45815;52.334;5.024;2022-12-08T00:40:20;101042.16;;;4.06;100.00
58955;BME280;45815;52.334;5.024;2022-12-08T00:42:45;101036.13;;;4.07;100.00
58955;BME280;45815;52.334;5.024;2022-12-08T00:45:11;101031.69;;;4.04;100.00
58955;BME280;45815;52.334;5.024;2022-12-08T00:47:36;101032.56;;;4.05;100.00
58955;BME280;45815;52.334;5.024;2022-12-08T00:50:02;101043.78;;;4.04;100.00
58955;BME280;45815;52.334;5.024;2022-12-08T00:52:28;101048.31;;;4.08;100.00
58955;BME280;45815;52.334;5.024;2022-12-08T00:54:53;101037.09;;;4.09;100.00
58955;BME280;45815;52.334;5.024;2022-12-08T00:57:20;101030.13;;;4.08;100.00
58955;BME280;45815;52.334;5.024;2022-12-08T00:59:45;101030.28;;;4.11;100.00
58955;BME280;45815;52.334;5.024;2022-12-08T01:02:11;101028.56;;;4.11;100.00
58955;BME280;45815;52.334;5.024;2022-12-08T01:04:37;101023.44;;;4.13;100.00
58955;BME280;45815;52.334;5.024;2022-12-08T01:07:02;101026.06;;;4.13;100.00
58955;BME280;45815;52.334;5.024;2022-12-08T01:09:28;101026.06;;;4.13;100.00
58955;BME280;45815;52.334;5.024;2022-12-08T01:11:53;101024.34;;;4.13;100.00
58955;BME280;45815;52.334;5.024;2022-12-08T01:14:19;101016.53;;;4.13;100.00
58955;BME280;45815;52.334;5.024;2022-12-08T01:16:44;101022.63;;;4.14;100.00
58955;BME280;45815;52.334;5.024;2022-12-08T01:19:11;101021.88;;;4.16;100.00
58955;BME280;45815;52.334;5.024;2022-12-08T01:21:37;101004.09;;;4.06;100.00
58955;BME280;45815;52.334;5.024;2022-12-08T01:24:02;101025.38;;;4.17;100.00
58955;BME280;45815;52.334;5.024;2022-12-08T01:26:28;101020.19;;;4.17;100.00
58955;BME280;45815;52.334;5.024;2022-12-08T01:28:53;101018.41;;;4.16;100.00
58955;BME280;45815;52.334;5.024;2022-12-08T01:31:22;101026.09;;;4.14;100.00
58955;BME280;45815;52.334;5.024;2022-12-08T01:33:48;101027.69;;;4.11;100.00
58955;BME280;45815;52.334;5.024;2022-12-08T01:38:44;101013.72;;;4.09;100.00
58955;BME280;45815;52.334;5.024;2022-12-08T01:41:14;101010.25;;;4.08;100.00
58955;BME280;45815;52.334;5.024;2022-12-08T01:46:21;101012.84;;;4.08;100.00
58955;BME280;45815;52.334;5.024;2022-12-08T01:48:46;101014.47;;;4.06;100.00
58955;BME280;45815;52.334;5.024;2022-12-08T01:51:13;101014.47;;;4.06;100.00
58955;BME280;45815;52.334;5.024;2022-12-08T01:53:39;101010.81;;;4.02;100.00
58955;BME280;45815;52.334;5.024;2022-12-08T01:56:10;101007.28;;;4.00;100.00
58955;BME280;45815;52.334;5.024;2022-12-08T01:58:40;101005.50;;;3.99;100.00
58955;BME280;45815;52.334;5.024;2022-12-08T02:01:07;101001.13;;;3.98;100.00
58955;BME280;45815;52.334;5.024;2022-12-08T02:03:39;101003.63;;;3.97;100.00
58955;BME280;45815;52.334;5.024;2022-12-08T02:06:06;100992.50;;;3.99;100.00
58955;BME280;45815;52.334;5.024;2022-12-08T02:08:32;100997.84;;;4.02;100.00
58955;BME280;45815;52.334;5.024;2022-12-08T02:10:58;100985.69;;;4.01;100.00
58955;BME280;45815;52.334;5.024;2022-12-08T02:13:24;100993.47;;;4.01;100.00
58955;BME280;45815;52.334;5.024;2022-12-08T02:19:00;100986.44;;;3.99;100.00
58955;BME280;45815;52.334;5.024;2022-12-08T02:21:35;100983.22;;;4.05;100.00
58955;BME280;45815;52.334;5.024;2022-12-08T02:34:56;100983.00;;;4.18;100.00
58955;BME280;45815;52.334;5.024;2022-12-08T02:37:29;100981.22;;;4.17;100.00
58955;BME280;45815;52.334;5.024;2022-12-08T02:42:42;100965.63;;;4.17;100.00
58955;BME280;45815;52.334;5.024;2022-12-08T02:47:40;100960.25;;;3.94;100.00
58955;BME280;45815;52.334;5.024;2022-12-08T02:50:07;100957.34;;;4.06;100.00
58955;BME280;45815;52.334;5.024;2022-12-08T02:55:02;100930.47;;;4.06;100.00
58955;BME280;45815;52.334;5.024;2022-12-08T03:02:51;100927.03;;;4.07;100.00
58955;BME280;45815;52.334;5.024;2022-12-08T03:08:15;100918.59;;;4.11;100.00
58955;BME280;45815;52.334;5.024;2022-12-08T03:10:59;100918.50;;;4.09;100.00
58955;BME280;45815;52.334;5.024;2022-12-08T03:13:40;100917.69;;;4.10;100.00
58955;BME280;45815;52.334;5.024;2022-12-08T03:16:08;100931.91;;;4.18;100.00
58955;BME280;45815;52.334;5.024;2022-12-08T03:18:38;100937.19;;;4.20;100.00
58955;BME280;45815;52.334;5.024;2022-12-08T03:21:05;100922.16;;;4.13;100.00
58955;BME280;45815;52.334;5.024;2022-12-08T03:23:31;100915.78;;;4.06;100.00
58955;BME280;45815;52.334;5.024;2022-12-08T03:26:03;100923.91;;;4.14;100.00
58955;BME280;45815;52.334;5.024;2022-12-08T03:28:33;100927.47;;;4.16;100.00
58955;BME280;45815;52.334;5.024;2022-12-08T03:31:01;100894.25;;;4.09;100.00
58955;BME280;45815;52.334;5.024;2022-12-08T03:33:31;100900.47;;;4.12;100.00
58955;BME280;45815;52.334;5.024;2022-12-08T03:36:00;100886.59;;;4.12;100.00
58955;BME280;45815;52.334;5.024;2022-12-08T03:38:36;100890.22;;;4.15;100.00
58955;BME280;45815;52.334;5.024;2022-12-08T03:41:03;100885.31;;;4.21;100.00
58955;BME280;45815;52.334;5.024;2022-12-08T03:43:48;100886.25;;;4.23;100.00
58955;BME280;45815;52.334;5.024;2022-12-08T03:46:18;100881.00;;;4.22;100.00
58955;BME280;45815;52.334;5.024;2022-12-08T03:48:44;100885.53;;;4.26;100.00
58955;BME280;45815;52.334;5.024;2022-12-08T03:51:09;100879.50;;;4.27;100.00
58955;BME280;45815;52.334;5.024;2022-12-08T03:53:35;100885.66;;;4.29;100.00
58955;BME280;45815;52.334;5.024;2022-12-08T03:56:04;100880.50;;;4.31;100.00
58955;BME280;45815;52.334;5.024;2022-12-08T03:58:29;100875.47;;;4.34;100.00
58955;BME280;45815;52.334;5.024;2022-12-08T04:00:55;100872.78;;;4.32;100.00
58955;BME280;45815;52.334;5.024;2022-12-08T04:03:20;100868.47;;;4.33;100.00
58955;BME280;45815;52.334;5.024;2022-12-08T04:05:45;100865.84;;;4.31;100.00
58955;BME280;45815;52.334;5.024;2022-12-08T04:08:11;100865.84;;;4.31;100.00
58955;BME280;45815;52.334;5.024;2022-12-08T04:10:36;100878.00;;;4.32;100.00
58955;BME280;45815;52.334;5.024;2022-12-08T04:13:02;100889.25;;;4.33;100.00
58955;BME280;45815;52.334;5.024;2022-12-08T04:15:27;100883.25;;;4.34;100.00
58955;BME280;45815;52.334;5.024;2022-12-08T04:17:52;100886.75;;;4.34;100.00
58955;BME280;45815;52.334;5.024;2022-12-08T04:20:18;100895.50;;;4.36;100.00
58955;BME280;45815;52.334;5.024;2022-12-08T04:22:43;100898.09;;;4.36;100.00
58955;BME280;45815;52.334;5.024;2022-12-08T04:25:09;100901.72;;;4.40;100.00
58955;BME280;45815;52.334;5.024;2022-12-08T04:27:34;100898.19;;;4.38;100.00
58955;BME280;45815;52.334;5.024;2022-12-08T04:29:59;100896.19;;;4.32;100.00
58955;BME280;45815;52.334;5.024;2022-12-08T04:32:25;100885.56;;;4.28;100.00
58955;BME280;45815;52.334;5.024;2022-12-08T04:34:50;100881.88;;;4.22;100.00
58955;BME280;45815;52.334;5.024;2022-12-08T04:37:16;100871.56;;;4.24;100.00
58955;BME280;45815;52.334;5.024;2022-12-08T04:39:41;100876.91;;;4.27;100.00
58955;BME280;45815;52.334;5.024;2022-12-08T04:42:06;100869.78;;;4.23;100.00
58955;BME280;45815;52.334;5.024;2022-12-08T04:44:32;100870.44;;;4.19;100.00
58955;BME280;45815;52.334;5.024;2022-12-08T04:46:57;100879.38;;;4.24;100.00
58955;BME280;45815;52.334;5.024;2022-12-08T04:49:22;100871.56;;;4.24;100.00
58955;BME280;45815;52.334;5.024;2022-12-08T04:51:48;100868.91;;;4.22;100.00
58955;BME280;45815;52.334;5.024;2022-12-08T04:54:13;100870.44;;;4.19;100.00
58955;BME280;45815;52.334;5.024;2022-12-08T04:56:39;100871.06;;;4.13;100.00
58955;BME280;45815;52.334;5.024;2022-12-08T04:59:04;100865.97;;;4.15;100.00
58955;BME280;45815;52.334;5.024;2022-12-08T05:01:29;100855.06;;;4.04;100.00
58955;BME280;45815;52.334;5.024;2022-12-08T05:03:55;100864.25;;;4.15;100.00
58955;BME280;45815;52.334;5.024;2022-12-08T05:06:21;100858.16;;;4.15;100.00
58955;BME280;45815;52.334;5.024;2022-12-08T05:08:46;100856.53;;;4.17;100.00
58955;BME280;45815;52.334;5.024;2022-12-08T05:11:12;100860.00;;;4.17;100.00
58955;BME280;45815;52.334;5.024;2022-12-08T05:13:38;100852.13;;;4.16;100.00
58955;BME280;45815;52.334;5.024;2022-12-08T05:16:05;100843.34;;;4.12;100.00
58955;BME280;45815;52.334;5.024;2022-12-08T05:18:31;100854.19;;;4.23;100.00
58955;BME280;45815;52.334;5.024;2022-12-08T05:20:57;100848.88;;;4.20;100.00
58955;BME280;45815;52.334;5.024;2022-12-08T05:23:22;100861.97;;;4.23;100.00
58955;BME280;45815;52.334;5.024;2022-12-08T05:25:47;100851.59;;;4.23;100.00
58955;BME280;45815;52.334;5.024;2022-12-08T05:28:13;100846.41;;;4.23;100.00
58955;BME280;45815;52.334;5.024;2022-12-08T05:30:38;100843.47;;;4.15;100.00
58955;BME280;45815;52.334;5.024;2022-12-08T05:33:03;100845.31;;;4.18;100.00
58955;BME280;45815;52.334;5.024;2022-12-08T05:35:29;100841.66;;;4.14;100.00
58955;BME280;45815;52.334;5.024;2022-12-08T05:37:54;100842.59;;;4.15;100.00
58955;BME280;45815;52.334;5.024;2022-12-08T05:40:20;100851.19;;;4.14;100.00
58955;BME280;45815;52.334;5.024;2022-12-08T05:42:45;100852.81;;;4.12;100.00
58955;BME280;45815;52.334;5.024;2022-12-08T05:45:11;100840.78;;;4.14;100.00
58955;BME280;45815;52.334;5.024;2022-12-08T05:47:36;100846.16;;;4.17;100.00
58955;BME280;45815;52.334;5.024;2022-12-08T05:50:02;100851.19;;;4.14;100.00
58955;BME280;45815;52.334;5.024;2022-12-08T05:52:27;100849.41;;;4.13;100.00
58955;BME280;45815;52.334;5.024;2022-12-08T05:54:53;100848.38;;;4.09;100.00
58955;BME280;45815;52.334;5.024;2022-12-08T05:57:18;100830.94;;;4.07;100.00
58955;BME280;45815;52.334;5.024;2022-12-08T05:59:43;100848.03;;;4.21;100.00
58955;BME280;45815;52.334;5.024;2022-12-08T06:02:09;100842.09;;;4.23;100.00
58955;BME280;45815;52.334;5.024;2022-12-08T06:04:34;100839.56;;;4.25;100.00
58955;BME280;45815;52.334;5.024;2022-12-08T06:07:00;100836.28;;;4.29;100.00
58955;BME280;45815;52.334;5.024;2022-12-08T06:09:25;100831.78;;;4.25;100.00
58955;BME280;45815;52.334;5.024;2022-12-08T06:11:51;100837.16;;;4.30;100.00
58955;BME280;45815;52.334;5.024;2022-12-08T06:14:16;100829.25;;;4.27;100.00
58955;BME280;45815;52.334;5.024;2022-12-08T06:16:41;100833.56;;;4.26;100.00
58955;BME280;45815;52.334;5.024;2022-12-08T06:19:07;100823.56;;;4.16;100.00
58955;BME280;45815;52.334;5.024;2022-12-08T06:21:32;100827.13;;;4.18;100.00
58955;BME280;45815;52.334;5.024;2022-12-08T06:23:58;100823.66;;;4.17;100.00
58955;BME280;45815;52.334;5.024;2022-12-08T06:26:23;100820.63;;;4.08;100.00
58955;BME280;45815;52.334;5.024;2022-12-08T06:28:49;100826.59;;;4.06;100.00
58955;BME280;45815;52.334;5.024;2022-12-08T06:31:23;100827.47;;;4.06;100.00
58955;BME280;45815;52.334;5.024;2022-12-08T06:33:50;100814.28;;;4.01;100.00
58955;BME280;45815;52.334;5.024;2022-12-08T06:36:18;100817.06;;;4.06;100.00
58955;BME280;45815;52.334;5.024;2022-12-08T06:38:43;100813.59;;;4.06;100.00
58955;BME280;45815;52.334;5.024;2022-12-08T06:41:10;100821.31;;;4.04;100.00
58955;BME280;45815;52.334;5.024;2022-12-08T06:43:36;100818.72;;;4.04;100.00
58955;BME280;45815;52.334;5.024;2022-12-08T06:46:04;100826.44;;;4.02;100.00
58955;BME280;45815;52.334;5.024;2022-12-08T06:48:30;100832.31;;;3.98;100.00
58955;BME280;45815;52.334;5.024;2022-12-08T06:50:55;100826.09;;;3.95;100.00
58955;BME280;45815;52.334;5.024;2022-12-08T06:53:21;100827.81;;;3.94;100.00
58955;BME280;45815;52.334;5.024;2022-12-08T06:55:51;100831.50;;;3.99;100.00
58955;BME280;45815;52.334;5.024;2022-12-08T06:58:17;100832.53;;;4.03;100.00
58955;BME280;45815;52.334;5.024;2022-12-08T07:00:44;100830.69;;;4.00;100.00
58955;BME280;45815;52.334;5.024;2022-12-08T07:03:10;100826.97;;;3.95;100.00
58955;BME280;45815;52.334;5.024;2022-12-08T07:05:38;100831.06;;;3.90;100.00
58955;BME280;45815;52.334;5.024;2022-12-08T07:08:06;100826.63;;;3.88;100.00
58955;BME280;45815;52.334;5.024;2022-12-08T07:10:32;100830.66;;;3.81;100.00
58955;BME280;45815;52.334;5.024;2022-12-08T07:12:57;100842.66;;;3.79;100.00
58955;BME280;45815;52.334;5.024;2022-12-08T07:15:23;100839.63;;;3.70;100.00
58955;BME280;45815;52.334;5.024;2022-12-08T07:17:48;100846.75;;;3.74;100.00
58955;BME280;45815;52.334;5.024;2022-12-08T07:20:14;100850.09;;;3.71;100.00
58955;BME280;45815;52.334;5.024;2022-12-08T07:22:39;100854.50;;;3.72;100.00
58955;BME280;45815;52.334;5.024;2022-12-08T07:25:05;100857.41;;;3.61;100.00
58955;BME280;45815;52.334;5.024;2022-12-08T07:27:31;100858.41;;;3.64;100.00
58955;BME280;45815;52.334;5.024;2022-12-08T07:29:56;100858.41;;;3.64;100.00
58955;BME280;45815;52.334;5.024;2022-12-08T07:32:22;100858.63;;;3.69;100.00
58955;BME280;45815;52.334;5.024;2022-12-08T07:34:48;100860.56;;;3.73;100.00
58955;BME280;45815;52.334;5.024;2022-12-08T07:37:13;100865.09;;;3.77;100.00
58955;BME280;45815;52.334;5.024;2022-12-08T07:39:38;100854.84;;;3.80;100.00
58955;BME280;45815;52.334;5.024;2022-12-08T07:42:04;100856.78;;;3.84;100.00
58955;BME280;45815;52.334;5.024;2022-12-08T07:44:30;100855.84;;;3.84;100.00
58955;BME280;45815;52.334;5.024;2022-12-08T07:46:55;100860.31;;;3.86;100.00
58955;BME280;45815;52.334;5.024;2022-12-08T07:49:21;100848.03;;;3.82;100.00
58955;BME280;45815;52.334;5.024;2022-12-08T07:51:46;100823.25;;;3.71;100.00
58955;BME280;45815;52.334;5.024;2022-12-08T07:54:12;100842.41;;;3.73;100.00
58955;BME280;45815;52.334;5.024;2022-12-08T07:56:37;100845.97;;;3.75;100.00
58955;BME280;45815;52.334;5.024;2022-12-08T07:59:03;100852.03;;;3.75;100.00
58955;BME280;45815;52.334;5.024;2022-12-08T08:01:30;100854.72;;;3.77;100.00
58955;BME280;45815;52.334;5.024;2022-12-08T08:03:57;100838.84;;;3.71;100.00
58955;BME280;45815;52.334;5.024;2022-12-08T08:06:25;100832.69;;;3.69;100.00
58955;BME280;45815;52.334;5.024;2022-12-08T08:08:50;100848.38;;;3.72;100.00
58955;BME280;45815;52.334;5.024;2022-12-08T08:11:16;100838.97;;;3.74;100.00
58955;BME280;45815;52.334;5.024;2022-12-08T08:13:41;100837.97;;;3.70;100.00
58955;BME280;45815;52.334;5.024;2022-12-08T08:16:08;100839.13;;;3.77;100.00
58955;BME280;45815;52.334;5.024;2022-12-08T08:18:35;100835.72;;;3.78;100.00
58955;BME280;45815;52.334;5.024;2022-12-08T08:21:02;100847.31;;;3.86;100.00
58955;BME280;45815;52.334;5.024;2022-12-08T08:23:28;100848.22;;;3.87;100.00
58955;BME280;45815;52.334;5.024;2022-12-08T08:25:54;100853.34;;;3.85;100.00
58955;BME280;45815;52.334;5.024;2022-12-08T08:28:22;100855.06;;;3.85;100.00
58955;BME280;45815;52.334;5.024;2022-12-08T08:30:47;100861.22;;;3.87;100.00
58955;BME280;45815;52.334;5.024;2022-12-08T08:33:13;100856.78;;;3.84;100.00
58955;BME280;45815;52.334;5.024;2022-12-08T08:35:38;100855.81;;;3.82;100.00
58955;BME280;45815;52.334;5.024;2022-12-08T08:38:05;100861.13;;;3.85;100.00
58955;BME280;45815;52.334;5.024;2022-12-08T08:40:30;100847.19;;;3.83;100.00
58955;BME280;45815;52.334;5.024;2022-12-08T08:42:55;100847.28;;;3.85;100.00
58955;BME280;45815;52.334;5.024;2022-12-08T08:45:21;100847.31;;;3.86;100.00
58955;BME280;45815;52.334;5.024;2022-12-08T08:47:46;100844.06;;;3.90;100.00
58955;BME280;45815;52.334;5.024;2022-12-08T08:50:12;100847.47;;;3.89;100.00
58955;BME280;45815;52.334;5.024;2022-12-08T08:52:37;100845.63;;;3.87;100.00
58955;BME280;45815;52.334;5.024;2022-12-08T08:55:03;100844.88;;;3.89;100.00
58955;BME280;45815;52.334;5.024;2022-12-08T08:57:28;100844.72;;;3.86;100.00
58955;BME280;45815;52.334;5.024;2022-12-08T08:59:54;100858.97;;;3.94;100.00
58955;BME280;45815;52.334;5.024;2022-12-08T09:02:20;100843.25;;;3.91;100.00
58955;BME280;45815;52.334;5.024;2022-12-08T09:04:46;100858.28;;;3.98;100.00
58955;BME280;45815;52.334;5.024;2022-12-08T09:07:11;100859.97;;;3.98;100.00
58955;BME280;45815;52.334;5.024;2022-12-08T09:09:38;100868.72;;;4.00;100.00
58955;BME280;45815;52.334;5.024;2022-12-08T09:12:04;100862.78;;;4.02;100.00
58955;BME280;45815;52.334;5.024;2022-12-08T09:14:30;100869.78;;;4.04;100.00
58955;BME280;45815;52.334;5.024;2022-12-08T09:16:55;100874.31;;;4.08;100.00
58955;BME280;45815;52.334;5.024;2022-12-08T09:19:21;100874.34;;;4.09;100.00
58955;BME280;45815;52.334;5.024;2022-12-08T09:21:46;100874.56;;;4.14;100.00
58955;BME280;45815;52.334;5.024;2022-12-08T09:24:12;100868.56;;;4.15;100.00
58955;BME280;45815;52.334;5.024;2022-12-08T09:26:41;100863.19;;;4.12;100.00
58955;BME280;45815;52.334;5.024;2022-12-08T09:29:08;100855.50;;;4.13;100.00
58955;BME280;45815;52.334;5.024;2022-12-08T09:31:34;100846.69;;;4.10;100.00
58955;BME280;45815;52.334;5.024;2022-12-08T09:33:59;100853.22;;;4.21;100.00
58955;BME280;45815;52.334;5.024;2022-12-08T09:36:25;100861.38;;;4.29;100.00
58955;BME280;45815;52.334;5.024;2022-12-08T09:38:51;100852.84;;;4.31;100.00
58955;BME280;45815;52.334;5.024;2022-12-08T09:41:35;100856.88;;;4.25;100.00
58955;BME280;45815;52.334;5.024;2022-12-08T09:46:50;100845.81;;;4.29;100.00
58955;BME280;45815;52.334;5.024;2022-12-08T09:49:20;100859.00;;;4.33;100.00
58955;BME280;45815;52.334;5.024;2022-12-08T09:51:46;100859.13;;;4.36;100.00
58955;BME280;45815;52.334;5.024;2022-12-08T09:54:19;100857.06;;;4.29;100.00
58955;BME280;45815;52.334;5.024;2022-12-08T09:56:46;100853.63;;;4.30;100.00
58955;BME280;45815;52.334;5.024;2022-12-08T09:59:22;100864.03;;;4.30;100.00
58955;BME280;45815;52.334;5.024;2022-12-08T10:01:49;100863.22;;;4.31;100.00
58955;BME280;45815;52.334;5.024;2022-12-08T10:04:25;100861.09;;;4.22;100.00
58955;BME280;45815;52.334;5.024;2022-12-08T10:09:45;100852.06;;;4.14;100.00
58955;BME280;45815;52.334;5.024;2022-12-08T10:12:36;100857.41;;;4.17;100.00
58955;BME280;45815;52.334;5.024;2022-12-08T10:15:39;100859.19;;;4.18;100.00
58955;BME280;45815;52.334;5.024;2022-12-08T10:18:17;100837.03;;;4.07;100.00
58955;BME280;45815;52.334;5.024;2022-12-08T10:20:46;100835.59;;;4.14;100.00
58955;BME280;45815;52.334;5.024;2022-12-08T10:25:40;100822.91;;;4.00;100.00
58955;BME280;45815;52.334;5.024;2022-12-08T10:28:08;100824.25;;;3.92;100.00
58955;BME280;45815;52.334;5.024;2022-12-08T10:30:35;100823.34;;;3.92;100.00
58955;BME280;45815;52.334;5.024;2022-12-08T10:33:00;100815.50;;;3.90;100.00
58955;BME280;45815;52.334;5.024;2022-12-08T10:35:45;100815.59;;;3.74;100.00
58955;BME280;45815;52.334;5.024;2022-12-08T10:38:25;100816.56;;;3.76;100.00
58955;BME280;45815;52.334;5.024;2022-12-08T10:40:52;100802.63;;;3.74;100.00
58955;BME280;45815;52.334;5.024;2022-12-08T10:43:23;100812.56;;;3.83;100.00
58955;BME280;45815;52.334;5.024;2022-12-08T10:45:50;100808.38;;;3.86;100.00
58955;BME280;45815;52.334;5.024;2022-12-08T10:48:21;100806.47;;;3.82;100.00
58955;BME280;45815;52.334;5.024;2022-12-08T10:53:27;100799.69;;;3.86;100.00
58955;BME280;45815;52.334;5.024;2022-12-08T10:58:33;100793.22;;;3.95;100.00
58955;BME280;45815;52.334;5.024;2022-12-08T11:01:08;100798.69;;;4.01;100.00
58955;BME280;45815;52.334;5.024;2022-12-08T11:03:42;100791.72;;;4.00;100.00
58955;BME280;45815;52.334;5.024;2022-12-08T11:06:15;100788.16;;;4.18;100.00
58955;BME280;45815;52.334;5.024;2022-12-08T11:08:50;100791.72;;;4.20;100.00
58955;BME280;45815;52.334;5.024;2022-12-08T11:11:17;100789.41;;;4.26;100.00
58955;BME280;45815;52.334;5.024;2022-12-08T11:13:43;100785.97;;;4.27;100.00
58955;BME280;45815;52.334;5.024;2022-12-08T11:16:13;100777.22;;;4.25;100.00
58955;BME280;45815;52.334;5.024;2022-12-08T11:18:46;100784.84;;;4.41;100.00
58955;BME280;45815;52.334;5.024;2022-12-08T11:21:18;100780.09;;;4.31;100.00
58955;BME280;45815;52.334;5.024;2022-12-08T11:23:48;100777.25;;;4.46;100.00
58955;BME280;45815;52.334;5.024;2022-12-08T11:26:27;100774.84;;;4.51;100.00
58955;BME280;45815;52.334;5.024;2022-12-08T11:28:54;100781.06;;;4.54;100.00
58955;BME280;45815;52.334;5.024;2022-12-08T11:31:46;100772.56;;;4.58;100.00
58955;BME280;45815;52.334;5.024;2022-12-08T11:36:54;100770.53;;;4.51;100.00
58955;BME280;45815;52.334;5.024;2022-12-08T11:39:21;100752.69;;;4.39;100.00
58955;BME280;45815;52.334;5.024;2022-12-08T11:41:52;100764.81;;;4.39;100.00
58955;BME280;45815;52.334;5.024;2022-12-08T11:44:31;100771.56;;;4.35;100.00
58955;BME280;45815;52.334;5.024;2022-12-08T11:47:11;100758.25;;;4.28;100.00
58955;BME280;45815;52.334;5.024;2022-12-08T11:49:40;100770.47;;;4.29;100.00
58955;BME280;45815;52.334;5.024;2022-12-08T11:52:20;100764.16;;;4.23;100.00
58955;BME280;45815;52.334;5.024;2022-12-08T11:54:57;100766.06;;;4.28;100.00
58955;BME280;45815;52.334;5.024;2022-12-08T11:57:26;100761.53;;;4.64;100.00
58955;BME280;45815;52.334;5.024;2022-12-08T11:59:55;100759.22;;;5.14;100.00
58955;BME280;45815;52.334;5.024;2022-12-08T12:02:26;100759.25;;;6.31;100.00
58955;BME280;45815;52.334;5.024;2022-12-08T12:16:11;100712.06;;;12.80;100.00
58955;BME280;45815;52.334;5.024;2022-12-08T12:18:51;100712.31;;;13.16;100.00
58955;BME280;45815;52.334;5.024;2022-12-08T12:21:25;100719.59;;;13.50;100.00
58955;BME280;45815;52.334;5.024;2022-12-08T12:26:36;100726.69;;;13.62;100.00
58955;BME280;45815;52.334;5.024;2022-12-08T12:29:18;100715.34;;;12.52;100.00
58955;BME280;45815;52.334;5.024;2022-12-08T12:31:47;100715.84;;;11.42;100.00
58955;BME280;45815;52.334;5.024;2022-12-08T12:34:25;100708.50;;;10.62;100.00
58955;BME280;45815;52.334;5.024;2022-12-08T12:37:10;100713.91;;;9.77;100.00
58955;BME280;45815;52.334;5.024;2022-12-08T12:39:53;100709.28;;;9.24;100.00
58955;BME280;45815;52.334;5.024;2022-12-08T12:43:10;100723.59;;;8.64;100.00
58955;BME280;45815;52.334;5.024;2022-12-08T12:45:34;100719.53;;;8.42;100.00
58955;BME280;45815;52.334;5.024;2022-12-08T12:52:59;100710.91;;;7.51;100.00
58955;BME280;45815;52.334;5.024;2022-12-08T12:55:27;100715.69;;;7.35;100.00
58955;BME280;45815;52.334;5.024;2022-12-08T12:57:55;100716.59;;;7.09;100.00
58955;BME280;45815;52.334;5.024;2022-12-08T13:00:25;100713.88;;;6.77;100.00
58955;BME280;45815;52.334;5.024;2022-12-08T13:02:52;100714.72;;;6.50;100.00
58955;BME280;45815;52.334;5.024;2022-12-08T13:07:58;100716.81;;;6.09;100.00
58955;BME280;45815;52.334;5.024;2022-12-08T13:10:32;100715.44;;;5.95;100.00
58955;BME280;45815;52.334;5.024;2022-12-08T13:15:52;100722.47;;;5.74;100.00
58955;BME280;45815;52.334;5.024;2022-12-08T13:20:55;100722.66;;;5.80;100.00
58955;BME280;45815;52.334;5.024;2022-12-08T13:31:46;100727.19;;;5.61;100.00
58955;BME280;45815;52.334;5.024;2022-12-08T13:44:42;100717.28;;;5.51;100.00
58955;BME280;45815;52.334;5.024;2022-12-08T13:47:14;100715.03;;;5.38;100.00
58955;BME280;45815;52.334;5.024;2022-12-08T13:49:46;100709.66;;;5.33;100.00
58955;BME280;45815;52.334;5.024;2022-12-08T13:52:34;100711.31;;;5.31;100.00
58955;BME280;45815;52.334;5.024;2022-12-08T13:55:02;100699.47;;;5.17;100.00
58955;BME280;45815;52.334;5.024;2022-12-08T13:57:31;100711.72;;;5.19;100.00
58955;BME280;45815;52.334;5.024;2022-12-08T14:00:14;100701.06;;;4.91;100.00
58955;BME280;45815;52.334;5.024;2022-12-08T14:02:44;100702.88;;;4.92;100.00
58955;BME280;45815;52.334;5.024;2022-12-08T14:05:12;100705.63;;;4.96;100.00
58955;BME280;45815;52.334;5.024;2022-12-08T14:07:39;100705.56;;;4.95;100.00
58955;BME280;45815;52.334;5.024;2022-12-08T14:10:29;100712.34;;;4.69;100.00
58955;BME280;45815;52.334;5.024;2022-12-08T14:13:10;100710.94;;;4.56;100.00
58955;BME280;45815;52.334;5.024;2022-12-08T14:15:38;100707.53;;;4.57;100.00
58955;BME280;45815;52.334;5.024;2022-12-08T14:18:04;100706.00;;;4.62;100.00
58955;BME280;45815;52.334;5.024;2022-12-08T14:20:32;100711.13;;;4.60;100.00
58955;BME280;45815;52.334;5.024;2022-12-08T14:22:58;100701.59;;;4.61;100.00
58955;BME280;45815;52.334;5.024;2022-12-08T14:25:27;100709.47;;;4.62;100.00
58955;BME280;45815;52.334;5.024;2022-12-08T14:28:01;100712.91;;;4.61;100.00
58955;BME280;45815;52.334;5.024;2022-12-08T14:30:30;100708.59;;;4.62;100.00
58955;BME280;45815;52.334;5.024;2022-12-08T14:32:58;100708.59;;;4.62;100.00